Isla De Los Estados, Argentina
Current Conditions -  °F | °C
As of 3:00 AM on Saturday 29 Nov 2014 (Local Time) from SAWH Reporting Station
Scattered Clouds Scattered Clouds  
Wind Chill: 31°   Ceiling: Unl
Heat Index: 36°   Visibility: 6mi
Dew Point: 30°   Wind: 6mph
Humidity: 81%   Direction: 360°N
Pressure: 29.53"   Gusts: NA
Location:  54.93°S, 64.65°W
Report Text: SAWH 290600Z 36005KT 9999 SCT045 SCT10002/M01 Q1000
Loading
Personal Weather Stations






























Interactive Weather Map New forecast layout! Learn more

10-Day Weather Forecast

Advertisements
Track Severe Weather on mobile